Time;durP1;ratioP1;P1;durP2;ratioP2;P2;SDS_P1;SDS_P2;PMS_P1;PMS_P2;Temp;Humidity;BMP_temperature;BMP_pressure;BME280_temperature;BME280_humidity;BME280_pressure;Samples;Min_cycle;Max_cycle;Signal;HPM_P1;HPM_P2
2022/03/24 00:01:51;;;;;;;54.77;23.67;;;7.10;91.10;;;;;;5030676;28;20606;-76
2022/03/24 00:04:17;;;;;;;58.57;24.40;;;7.10;90.80;;;;;;5030651;28;20243;-75
2022/03/24 00:06:42;;;;;;;59.47;26.37;;;7.20;91.00;;;;;;5030798;28;20173;-76
2022/03/24 00:09:08;;;;;;;63.07;24.33;;;7.00;92.10;;;;;;5030622;28;20674;-76
2022/03/24 00:11:34;;;;;;;59.07;25.07;;;6.90;92.50;;;;;;5030825;28;20177;-76
2022/03/24 00:14:00;;;;;;;54.90;24.10;;;6.60;92.10;;;;;;5029799;28;20180;-73
2022/03/24 00:16:26;;;;;;;58.23;24.20;;;6.40;93.60;;;;;;5031263;28;20201;-73
2022/03/24 00:18:52;;;;;;;59.07;25.60;;;6.20;95.40;;;;;;5030489;28;20190;-74
2022/03/24 00:21:18;;;;;;;60.03;25.13;;;6.20;95.90;;;;;;5030446;28;20176;-76
2022/03/24 00:23:44;;;;;;;56.60;25.03;;;6.30;95.90;;;;;;5030524;28;20265;-75
2022/03/24 00:26:10;;;;;;;57.67;24.30;;;6.20;95.90;;;;;;5030541;28;20185;-75
2022/03/24 00:28:35;;;;;;;56.70;25.60;;;6.30;95.70;;;;;;5030560;28;20197;-75
2022/03/24 00:31:02;;;;;;;56.30;24.73;;;6.20;96.00;;;;;;5030480;28;20225;-75
2022/03/24 00:33:28;;;;;;;54.93;24.63;;;6.30;95.50;;;;;;5030577;28;20272;-75
2022/03/24 00:35:55;;;;;;;56.57;25.77;;;6.40;94.40;;;;;;5030138;28;20284;-75
2022/03/24 00:38:21;;;;;;;57.90;26.27;;;6.40;94.50;;;;;;5030419;28;20177;-76
2022/03/24 00:40:47;;;;;;;57.23;25.07;;;6.40;94.60;;;;;;5034411;28;20166;-75
2022/03/24 00:43:12;;;;;;;59.73;25.80;;;6.40;93.60;;;;;;5034905;28;20244;-76
2022/03/24 00:45:41;;;;;;;56.70;25.07;;;6.50;93.80;;;;;;5034480;28;20177;-76
2022/03/24 00:48:09;;;;;;;67.93;26.40;;;6.60;93.20;;;;;;5034452;28;20639;-75
2022/03/24 00:50:37;;;;;;;59.20;25.47;;;6.70;93.70;;;;;;5034354;28;20263;-76
2022/03/24 00:53:03;;;;;;;60.07;25.70;;;6.60;94.40;;;;;;5034088;28;20180;-76
2022/03/24 00:55:30;;;;;;;62.27;24.97;;;6.30;95.70;;;;;;5034220;28;20205;-76
2022/03/24 00:57:56;;;;;;;55.23;24.47;;;6.40;94.20;;;;;;5034274;28;20174;-76
2022/03/24 01:00:25;;;;;;;59.57;26.03;;;6.30;94.90;;;;;;5034166;28;20194;-76
2022/03/24 01:02:53;;;;;;;66.97;26.17;;;6.40;94.50;;;;;;5034040;28;20873;-76
2022/03/24 01:05:23;;;;;;;55.47;25.03;;;6.40;93.90;;;;;;5033945;28;20197;-75
2022/03/24 01:07:50;;;;;;;54.27;24.70;;;6.30;94.50;;;;;;5034156;28;20581;-75
2022/03/24 01:10:19;;;;;;;59.90;25.60;;;6.20;95.50;;;;;;5034066;28;20657;-75
2022/03/24 01:12:46;;;;;;;62.63;24.87;;;6.20;95.20;;;;;;5033680;28;20228;-76
2022/03/24 01:15:14;;;;;;;66.07;25.60;;;6.10;95.20;;;;;;5034577;28;20239;-76
2022/03/24 01:17:41;;;;;;;60.30;25.80;;;6.20;94.50;;;;;;5033969;28;20176;-76
2022/03/24 01:20:08;;;;;;;64.83;26.87;;;6.40;94.20;;;;;;5033757;28;20193;-76
2022/03/24 01:22:34;;;;;;;61.53;26.37;;;6.40;93.40;;;;;;5033678;28;20208;-76
2022/03/24 01:25:00;;;;;;;64.57;25.17;;;6.20;93.80;;;;;;5033796;28;20205;-76
2022/03/24 01:27:28;;;;;;;57.87;25.23;;;6.20;94.30;;;;;;5033710;28;20172;-73
2022/03/24 01:29:54;;;;;;;64.37;26.23;;;5.90;94.50;;;;;;5033644;28;20197;-73
2022/03/24 01:32:21;;;;;;;61.57;25.93;;;6.10;94.20;;;;;;5033458;28;20169;-73
2022/03/24 01:34:47;;;;;;;62.60;25.37;;;5.80;95.10;;;;;;5033112;28;20193;-74
2022/03/24 01:37:13;;;;;;;59.20;25.03;;;5.90;95.00;;;;;;5033549;28;20645;-75
2022/03/24 01:39:39;;;;;;;58.97;25.17;;;6.20;93.40;;;;;;5033498;28;20204;-75
2022/03/24 01:42:05;;;;;;;57.80;26.17;;;6.10;93.70;;;;;;5033272;28;20170;-75
2022/03/24 01:44:31;;;;;;;59.27;25.93;;;6.00;94.60;;;;;;5033637;28;20186;-76
2022/03/24 01:47:01;;;;;;;59.60;25.67;;;5.70;96.20;;;;;;5033291;28;20665;-75
2022/03/24 01:49:29;;;;;;;58.03;25.43;;;5.70;95.70;;;;;;5033208;28;20191;-76
2022/03/24 01:51:56;;;;;;;58.50;25.67;;;5.70;95.90;;;;;;5032569;28;20536;-75
2022/03/24 01:54:24;;;;;;;60.37;25.00;;;5.80;95.10;;;;;;5033116;28;20184;-76
2022/03/24 01:56:51;;;;;;;68.33;28.47;;;6.10;95.00;;;;;;5033043;28;20204;-75
2022/03/24 01:59:19;;;;;;;61.00;26.97;;;6.20;94.60;;;;;;5033039;28;20206;-75
2022/03/24 02:01:46;;;;;;;72.03;29.30;;;6.10;95.00;;;;;;5032829;28;20235;-75
2022/03/24 02:04:14;;;;;;;68.23;27.07;;;6.00;96.70;;;;;;5032836;28;20723;-75
2022/03/24 02:06:40;;;;;;;67.63;27.87;;;5.80;97.70;;;;;;5034294;28;20193;-75
2022/03/24 02:09:06;;;;;;;64.10;27.33;;;5.50;98.70;;;;;;5032987;28;20666;-75
2022/03/24 02:11:34;;;;;;;64.60;26.93;;;5.80;96.10;;;;;;5032607;28;20205;-75
2022/03/24 02:14:01;;;;;;;65.13;26.60;;;5.90;95.90;;;;;;5032053;28;20181;-75
2022/03/24 02:16:34;;;;;;;64.80;27.57;;;5.90;95.50;;;;;;5032547;28;20200;-75
2022/03/24 02:19:23;;;;;;;68.70;27.10;;;5.80;95.60;;;;;;5032712;28;20330;-75
2022/03/24 02:21:50;;;;;;;64.70;26.63;;;5.70;96.40;;;;;;5032500;28;20174;-75
2022/03/24 02:24:18;;;;;;;69.40;28.27;;;5.90;94.90;;;;;;5032584;28;20171;-75
2022/03/24 02:26:45;;;;;;;66.43;26.57;;;5.60;97.10;;;;;;5032383;28;20206;-75
2022/03/24 02:29:13;;;;;;;65.23;27.67;;;5.40;97.10;;;;;;5032410;28;20668;-75
2022/03/24 02:31:42;;;;;;;68.87;27.00;;;5.50;96.70;;;;;;5032393;28;20174;-75
2022/03/24 02:34:54;;;;;;;65.53;26.43;;;5.30;97.20;;;;;;5032592;28;20178;-75
2022/03/24 02:36:55;;;;;;;71.87;27.27;;;5.30;96.50;;;;;;5022804;28;20215;-75
2022/03/24 02:39:21;;;;;;;72.03;27.17;;;5.30;95.70;;;;;;5032223;28;20198;-75
2022/03/24 02:41:51;;;;;;;61.97;27.07;;;5.50;94.60;;;;;;5032079;28;20185;-75
2022/03/24 02:44:21;;;;;;;66.60;27.60;;;5.70;93.60;;;;;;5032277;28;20225;-75
2022/03/24 02:46:47;;;;;;;65.27;26.17;;;5.60;94.10;;;;;;5032278;28;20615;-75
2022/03/24 02:49:14;;;;;;;69.93;29.07;;;5.60;93.50;;;;;;5032136;28;20711;-75
2022/03/24 02:51:40;;;;;;;66.80;28.27;;;5.50;95.00;;;;;;5031836;28;20182;-75
2022/03/24 02:54:07;;;;;;;63.60;28.57;;;5.30;96.40;;;;;;5032200;28;20237;-75
2022/03/24 02:56:34;;;;;;;71.87;29.20;;;5.30;95.60;;;;;;5031869;28;20210;-75
2022/03/24 02:59:00;;;;;;;68.17;27.43;;;5.30;95.00;;;;;;5031982;28;20197;-75
2022/03/24 03:01:26;;;;;;;70.63;30.13;;;5.40;95.00;;;;;;5031025;28;20260;-75
2022/03/24 03:03:55;;;;;;;67.07;27.83;;;5.20;97.00;;;;;;5030984;28;20178;-75
2022/03/24 03:06:22;;;;;;;70.90;28.80;;;4.90;98.60;;;;;;5031447;28;20177;-75
2022/03/24 03:08:51;;;;;;;69.43;28.90;;;4.90;98.50;;;;;;5031379;28;20251;-75
2022/03/24 03:11:16;;;;;;;66.73;27.70;;;5.10;97.20;;;;;;5031222;28;20224;-75
2022/03/24 03:13:45;;;;;;;66.10;27.67;;;4.90;98.60;;;;;;5031086;28;20174;-75
2022/03/24 03:16:12;;;;;;;67.80;28.07;;;4.80;98.60;;;;;;5031199;28;20220;-75
2022/03/24 03:18:39;;;;;;;71.47;27.77;;;4.60;99.30;;;;;;5031138;28;20697;-75
2022/03/24 03:21:04;;;;;;;74.33;28.53;;;4.80;98.80;;;;;;5031407;28;20177;-75
2022/03/24 03:23:30;;;;;;;68.93;28.37;;;5.00;98.60;;;;;;5031445;28;20166;-75
2022/03/24 03:25:56;;;;;;;73.90;29.20;;;5.00;98.00;;;;;;5031490;28;20492;-75
2022/03/24 03:28:22;;;;;;;68.17;28.20;;;5.10;97.40;;;;;;5031393;28;20205;-75
2022/03/24 03:30:47;;;;;;;73.33;29.00;;;5.00;98.50;;;;;;5031350;28;20177;-75
2022/03/24 03:33:13;;;;;;;79.53;30.23;;;4.80;98.60;;;;;;5031092;28;20518;-75
2022/03/24 03:35:39;;;;;;;72.60;27.97;;;4.60;99.90;;;;;;5031195;28;20202;-75
2022/03/24 03:38:05;;;;;;;68.63;28.77;;;4.50;99.90;;;;;;5032405;28;20189;-75
2022/03/24 03:40:30;;;;;;;74.50;28.90;;;4.50;99.90;;;;;;5032477;28;20662;-75
2022/03/24 03:42:56;;;;;;;71.40;29.27;;;4.30;99.90;;;;;;5031105;28;20190;-75
2022/03/24 03:45:22;;;;;;;74.70;30.47;;;4.30;99.90;;;;;;5031128;28;20276;-75
2022/03/24 03:47:48;;;;;;;72.60;29.00;;;4.30;99.90;;;;;;5031095;28;20178;-75
2022/03/24 03:50:13;;;;;;;79.40;29.27;;;4.30;99.90;;;;;;5030977;28;20232;-75
2022/03/24 03:52:39;;;;;;;73.63;29.30;;;4.20;99.90;;;;;;5030732;28;20173;-75
2022/03/24 03:55:06;;;;;;;73.47;28.97;;;4.30;99.90;;;;;;5030820;28;20243;-75
2022/03/24 03:57:32;;;;;;;71.93;29.00;;;4.50;99.90;;;;;;5030810;28;20175;-75
2022/03/24 04:00:52;;;;;;;76.10;30.57;;;4.50;99.90;;;;;;5030786;28;20185;-75
2022/03/24 04:02:43;;;;;;;69.73;29.10;;;4.60;99.90;;;;;;5031730;28;20170;-75
2022/03/24 04:05:09;;;;;;;71.53;28.83;;;4.70;99.90;;;;;;5030612;28;20340;-75
2022/03/24 04:07:35;;;;;;;73.90;29.13;;;4.80;99.70;;;;;;5030666;28;20196;-75
2022/03/24 04:10:00;;;;;;;75.10;29.43;;;4.60;99.90;;;;;;5030656;28;20583;-75
2022/03/24 04:12:26;;;;;;;68.33;27.63;;;4.50;99.90;;;;;;5030453;28;20253;-75
2022/03/24 04:14:51;;;;;;;71.70;28.13;;;4.60;99.90;;;;;;5029992;28;20268;-75
2022/03/24 04:17:18;;;;;;;73.97;28.87;;;4.60;99.90;;;;;;5030581;28;20635;-75
2022/03/24 04:19:44;;;;;;;77.07;29.10;;;4.50;99.90;;;;;;5030747;28;20197;-75
2022/03/24 04:22:10;;;;;;;68.70;27.77;;;4.50;99.90;;;;;;5030338;28;20178;-75
2022/03/24 04:24:36;;;;;;;69.77;27.60;;;4.50;99.90;;;;;;5030498;28;20174;-75
2022/03/24 04:27:02;;;;;;;71.37;28.73;;;4.50;99.90;;;;;;5030854;28;20173;-75
2022/03/24 04:29:28;;;;;;;67.00;27.77;;;4.30;99.90;;;;;;5030345;28;20204;-75
2022/03/24 04:31:55;;;;;;;73.23;29.57;;;4.30;99.90;;;;;;5030316;28;20176;-75
2022/03/24 04:34:21;;;;;;;77.73;29.27;;;4.30;99.90;;;;;;5030227;28;20173;-75
2022/03/24 04:36:47;;;;;;;69.13;26.90;;;4.40;99.90;;;;;;5030187;28;20202;-75
2022/03/24 04:39:13;;;;;;;66.43;27.23;;;4.20;99.90;;;;;;5030356;28;20661;-75
2022/03/24 04:41:41;;;;;;;73.80;28.63;;;4.10;99.90;;;;;;5031485;28;20162;-75
2022/03/24 04:44:07;;;;;;;64.33;28.13;;;4.00;99.90;;;;;;5030297;28;20173;-75
2022/03/24 04:46:33;;;;;;;66.13;26.60;;;4.00;99.90;;;;;;5030338;28;20177;-75
2022/03/24 04:48:59;;;;;;;65.57;27.00;;;3.90;99.90;;;;;;5031495;28;20198;-75
2022/03/24 04:51:24;;;;;;;58.57;26.33;;;3.80;99.90;;;;;;5046773;23;21355;-76
2022/03/24 04:53:50;;;;;;;64.00;27.90;;;3.90;99.90;;;;;;5050250;28;20195;-74
2022/03/24 04:56:16;;;;;;;69.83;25.90;;;3.90;99.90;;;;;;5050078;28;20201;-76
2022/03/24 04:58:42;;;;;;;65.83;26.93;;;3.80;99.90;;;;;;5049982;28;20268;-74
2022/03/24 05:01:08;;;;;;;63.23;26.63;;;4.10;99.90;;;;;;5049976;28;20170;-73
2022/03/24 05:03:33;;;;;;;67.13;28.40;;;4.10;99.90;;;;;;5050038;28;20537;-74
2022/03/24 05:05:59;;;;;;;70.10;27.57;;;4.00;99.90;;;;;;5049727;28;20177;-73
2022/03/24 05:08:26;;;;;;;63.83;26.80;;;3.90;99.90;;;;;;5033832;28;20217;-74
2022/03/24 05:10:51;;;;;;;68.17;28.27;;;3.80;99.90;;;;;;5050066;28;20238;-73
2022/03/24 05:13:18;;;;;;;71.27;28.03;;;3.90;99.90;;;;;;5049398;28;20180;-74
2022/03/24 05:15:43;;;;;;;65.87;27.73;;;4.00;99.90;;;;;;5049997;28;20628;-74
2022/03/24 05:18:09;;;;;;;72.47;28.67;;;3.80;99.90;;;;;;5049903;28;20181;-72
2022/03/24 05:20:35;;;;;;;71.73;28.67;;;3.90;99.90;;;;;;5050032;28;20169;-75
2022/03/24 05:23:01;;;;;;;71.07;28.23;;;3.90;99.90;;;;;;5049857;28;20173;-73
2022/03/24 05:25:27;;;;;;;68.63;26.77;;;4.10;99.90;;;;;;5051164;28;20699;-73
2022/03/24 05:27:52;;;;;;;66.87;27.50;;;4.10;99.90;;;;;;5053653;28;20177;-73
2022/03/24 05:30:18;;;;;;;66.97;27.73;;;3.80;99.90;;;;;;5054229;28;20205;-72
2022/03/24 05:32:44;;;;;;;69.50;28.17;;;3.80;99.90;;;;;;5054043;28;20186;-73
2022/03/24 05:35:10;;;;;;;67.00;27.23;;;3.70;99.90;;;;;;5053556;28;20234;-73
2022/03/24 05:37:36;;;;;;;67.30;28.47;;;3.80;99.90;;;;;;5053641;28;20213;-74
2022/03/24 05:40:03;;;;;;;65.50;27.10;;;3.90;99.90;;;;;;5053374;28;20240;-75
2022/03/24 05:42:28;;;;;;;68.23;27.77;;;3.90;99.90;;;;;;5053119;28;20177;-75
2022/03/24 05:44:54;;;;;;;66.10;27.23;;;4.00;99.90;;;;;;5053356;28;20170;-75
2022/03/24 05:47:20;;;;;;;71.53;28.13;;;4.20;99.90;;;;;;5053309;28;20235;-77
2022/03/24 05:49:46;;;;;;;69.07;27.60;;;4.00;99.90;;;;;;5053098;28;20300;-75
2022/03/24 05:52:12;;;;;;;68.97;28.20;;;4.10;99.90;;;;;;5052965;28;20189;-74
2022/03/24 05:54:38;;;;;;;63.17;26.80;;;4.30;99.90;;;;;;5053127;28;20177;-74
2022/03/24 05:57:03;;;;;;;62.27;27.03;;;4.40;99.90;;;;;;5052939;28;20821;-75
2022/03/24 05:59:29;;;;;;;69.90;28.33;;;4.50;99.90;;;;;;5052925;28;20564;-75
2022/03/24 06:01:55;;;;;;;81.77;28.93;;;4.40;99.90;;;;;;5052907;28;20174;-75
2022/03/24 06:04:23;;;;;;;75.90;30.07;;;4.20;99.90;;;;;;5052431;28;20205;-74
2022/03/24 06:06:53;;;;;;;76.57;29.70;;;4.10;99.90;;;;;;5053037;28;20185;-74
2022/03/24 06:09:20;;;;;;;65.80;27.83;;;4.20;99.90;;;;;;5052695;28;20277;-74
2022/03/24 06:11:47;;;;;;;75.57;29.57;;;4.30;99.90;;;;;;5052586;28;20181;-74
2022/03/24 06:14:13;;;;;;;78.17;29.57;;;4.30;99.90;;;;;;5052426;28;20603;-74
2022/03/24 06:16:40;;;;;;;69.17;27.67;;;4.30;99.90;;;;;;5052027;28;20238;-74
2022/03/24 06:19:07;;;;;;;71.10;29.20;;;4.50;99.90;;;;;;5052594;28;20193;-73
2022/03/24 06:21:33;;;;;;;63.27;28.83;;;4.50;99.90;;;;;;5052277;28;20258;-73
2022/03/24 06:23:58;;;;;;;70.00;28.67;;;4.60;99.90;;;;;;5052401;28;20672;-74
2022/03/24 06:26:24;;;;;;;67.57;28.20;;;4.70;99.90;;;;;;5052390;28;20181;-74
2022/03/24 06:28:52;;;;;;;62.57;27.93;;;5.20;99.90;;;;;;5052416;28;20198;-75
2022/03/24 06:31:19;;;;;;;66.40;28.60;;;5.60;99.90;;;;;;5052300;28;20174;-74
2022/03/24 06:33:45;;;;;;;71.73;29.37;;;6.00;99.90;;;;;;5052457;28;20182;-74
2022/03/24 06:36:11;;;;;;;70.23;28.77;;;6.30;99.30;;;;;;5052227;28;20708;-75
2022/03/24 06:38:37;;;;;;;69.63;28.20;;;6.30;99.90;;;;;;5052234;28;20187;-75
2022/03/24 06:41:05;;;;;;;63.87;28.47;;;6.30;99.90;;;;;;5052139;28;20612;-73
2022/03/24 06:43:31;;;;;;;72.17;28.70;;;6.20;99.90;;;;;;5052316;28;20173;-76
2022/03/24 06:45:57;;;;;;;72.40;30.00;;;6.50;99.90;;;;;;5052216;28;20178;-76
2022/03/24 06:48:23;;;;;;;74.93;30.47;;;7.10;99.00;;;;;;5052029;28;20282;-76
2022/03/24 06:50:49;;;;;;;70.10;30.60;;;7.80;97.10;;;;;;5052095;28;20197;-75
2022/03/24 06:53:15;;;;;;;68.10;30.20;;;8.10;97.00;;;;;;5051725;28;20214;-75
2022/03/24 06:55:41;;;;;;;77.30;30.77;;;8.10;96.80;;;;;;5051905;28;20206;-74
2022/03/24 06:58:07;;;;;;;64.43;29.57;;;8.10;96.80;;;;;;5051914;28;20217;-74
2022/03/24 07:00:33;;;;;;;73.13;30.53;;;8.50;95.70;;;;;;5051997;28;20168;-75
2022/03/24 07:02:59;;;;;;;73.30;30.30;;;9.10;94.30;;;;;;5051731;28;20278;-76
2022/03/24 07:05:25;;;;;;;71.67;29.50;;;9.80;91.90;;;;;;5051612;28;20594;-76
2022/03/24 07:07:50;;;;;;;71.57;29.80;;;9.90;92.10;;;;;;5051790;28;20265;-76
2022/03/24 07:10:17;;;;;;;70.10;29.50;;;9.40;92.30;;;;;;5051705;28;20669;-76
2022/03/24 07:12:43;;;;;;;68.77;30.37;;;9.80;91.60;;;;;;5051650;28;20658;-77
2022/03/24 07:15:11;;;;;;;71.30;30.57;;;10.30;91.30;;;;;;5051550;28;20273;-76
2022/03/24 07:17:37;;;;;;;66.43;30.63;;;11.10;88.60;;;;;;5051660;28;20173;-76
2022/03/24 07:20:05;;;;;;;68.57;29.57;;;11.60;85.30;;;;;;5051590;28;20201;-76
2022/03/24 07:22:35;;;;;;;63.50;29.87;;;12.40;82.90;;;;;;5053640;28;20169;-75
2022/03/24 07:25:02;;;;;;;62.93;29.53;;;13.00;81.00;;;;;;5051585;28;20713;-76
2022/03/24 07:27:28;;;;;;;54.20;28.77;;;13.80;79.40;;;;;;5051541;28;20181;-77
2022/03/24 07:29:54;;;;;;;62.13;28.57;;;14.40;76.70;;;;;;5051445;28;20198;-77
2022/03/24 07:32:20;;;;;;;57.53;27.43;;;13.70;79.80;;;;;;5051569;28;20184;-76
2022/03/24 07:34:46;;;;;;;55.47;27.37;;;13.20;75.90;;;;;;5051089;28;20641;-76
2022/03/24 07:37:12;;;;;;;51.43;29.23;;;13.60;76.20;;;;;;5051419;28;20292;-75
2022/03/24 07:39:39;;;;;;;54.40;27.47;;;14.50;75.70;;;;;;5051303;28;20576;-77
2022/03/24 07:42:05;;;;;;;51.08;28.88;;;14.70;72.10;;;;;;5051121;28;20629;-78
2022/03/24 07:44:31;;;;;;;61.58;29.20;;;15.10;70.30;;;;;;5051197;28;20197;-78
2022/03/24 07:46:56;;;;;;;49.75;27.27;;;16.10;66.20;;;;;;5051147;28;20621;-75
2022/03/24 07:49:22;;;;;;;50.97;27.48;;;16.30;63.10;;;;;;5050565;28;20247;-76
2022/03/24 07:51:49;;;;;;;50.78;27.73;;;16.40;64.10;;;;;;5050831;28;20231;-77
2022/03/24 07:54:15;;;;;;;47.50;27.75;;;15.80;64.90;;;;;;5050961;28;20173;-74
2022/03/24 07:56:41;;;;;;;47.95;27.50;;;15.50;65.90;;;;;;5052195;28;20304;-75
2022/03/24 07:59:07;;;;;;;50.55;28.45;;;16.80;64.30;;;;;;5051055;28;20573;-75
2022/03/24 08:01:35;;;;;;;47.85;27.70;;;17.60;63.00;;;;;;5050976;28;20636;-77
2022/03/24 08:04:02;;;;;;;49.83;28.05;;;17.40;61.70;;;;;;5051881;28;20177;-77
2022/03/24 08:06:29;;;;;;;48.28;28.60;;;17.10;62.30;;;;;;5050849;28;20180;-77
2022/03/24 08:08:55;;;;;;;47.47;27.10;;;17.80;62.40;;;;;;5050738;28;20673;-77
2022/03/24 08:11:25;;;;;;;46.97;29.35;;;18.00;60.50;;;;;;5050579;28;20254;-77
2022/03/24 08:13:53;;;;;;;48.63;29.67;;;17.10;63.00;;;;;;5050792;28;20200;-77
2022/03/24 08:16:21;;;;;;;53.53;29.35;;;17.00;62.50;;;;;;5050752;28;20549;-75
2022/03/24 08:18:46;;;;;;;54.10;28.77;;;17.10;60.50;;;;;;5050378;28;20284;-78
2022/03/24 08:21:12;;;;;;;48.75;29.08;;;17.90;58.70;;;;;;5050395;28;20674;-77
2022/03/24 08:23:38;;;;;;;45.38;29.00;;;17.90;59.20;;;;;;5050403;28;20587;-77
2022/03/24 08:26:05;;;;;;;50.88;28.95;;;17.50;61.20;;;;;;5050930;28;20177;-78
2022/03/24 08:28:31;;;;;;;45.88;28.98;;;16.60;61.40;;;;;;5051365;28;20201;-74
2022/03/24 08:30:57;;;;;;;45.92;28.88;;;15.80;61.40;;;;;;5050582;28;20181;-77
2022/03/24 08:33:22;;;;;;;43.95;27.92;;;15.50;60.40;;;;;;5050521;28;20256;-76
2022/03/24 08:35:48;;;;;;;43.97;27.00;;;15.50;62.30;;;;;;5050358;28;20576;-76
2022/03/24 08:38:14;;;;;;;47.00;27.60;;;15.60;62.20;;;;;;5050290;28;20257;-76
2022/03/24 08:40:40;;;;;;;45.83;28.10;;;16.50;60.70;;;;;;5049956;28;20177;-75
2022/03/24 08:43:07;;;;;;;51.78;27.40;;;17.20;60.50;;;;;;5049804;28;20179;-76
2022/03/24 08:45:34;;;;;;;45.75;28.13;;;18.60;56.80;;;;;;5050553;28;20570;-76
2022/03/24 08:48:00;;;;;;;42.13;26.42;;;19.90;54.80;;;;;;5050735;28;20541;-75
2022/03/24 08:50:26;;;;;;;43.53;26.95;;;19.00;56.00;;;;;;5051205;28;20197;-77
2022/03/24 08:52:52;;;;;;;40.78;26.63;;;19.20;55.10;;;;;;5049887;28;20189;-75
2022/03/24 08:55:18;;;;;;;44.85;26.77;;;18.60;55.40;;;;;;5050690;28;20219;-76
2022/03/24 08:57:44;;;;;;;46.15;27.77;;;17.60;57.40;;;;;;5050662;28;20169;-74
2022/03/24 09:00:15;;;;;;;40.50;27.60;;;18.00;56.90;;;;;;5050866;28;20228;-75
2022/03/24 09:02:46;;;;;;;47.90;28.40;;;17.90;56.90;;;;;;5054323;28;20170;-75
2022/03/24 09:05:13;;;;;;;45.13;27.50;;;17.90;59.00;;;;;;5054745;28;20212;-74
2022/03/24 09:07:39;;;;;;;45.47;28.35;;;17.70;60.00;;;;;;5054281;28;20174;-75
2022/03/24 09:10:07;;;;;;;49.88;27.05;;;17.80;60.10;;;;;;5054189;28;20557;-74
2022/03/24 09:12:38;;;;;;;49.10;27.42;;;17.70;59.40;;;;;;5054155;28;20266;-76
2022/03/24 09:15:09;;;;;;;44.45;28.63;;;18.00;60.10;;;;;;5055734;28;20521;-77
2022/03/24 09:17:37;;;;;;;49.30;27.45;;;18.30;58.40;;;;;;5055122;28;20202;-75
2022/03/24 09:20:04;;;;;;;43.10;26.45;;;18.70;59.70;;;;;;5054054;28;20659;-75
2022/03/24 09:22:30;;;;;;;48.72;28.08;;;18.20;57.20;;;;;;5053821;28;20553;-76
2022/03/24 09:24:57;;;;;;;44.83;25.75;;;18.10;58.30;;;;;;5054022;28;20177;-79
2022/03/24 09:27:23;;;;;;;42.90;26.65;;;17.90;55.50;;;;;;5053912;28;20184;-77
2022/03/24 09:29:49;;;;;;;44.08;25.88;;;18.10;58.30;;;;;;5053836;28;20565;-77
2022/03/24 09:32:16;;;;;;;43.28;25.42;;;17.80;57.70;;;;;;5053753;28;20286;-76
2022/03/24 09:34:42;;;;;;;42.90;25.35;;;17.70;55.90;;;;;;5053360;28;20574;-78
2022/03/24 09:37:08;;;;;;;45.50;24.92;;;17.40;57.20;;;;;;5053727;28;20291;-75
2022/03/24 09:39:34;;;;;;;47.50;27.92;;;18.00;56.40;;;;;;5053659;28;20189;-78
2022/03/24 09:42:00;;;;;;;43.72;25.65;;;18.40;54.80;;;;;;5053068;28;20661;-77
2022/03/24 09:44:27;;;;;;;47.20;26.00;;;18.10;56.00;;;;;;5053528;28;20177;-77
2022/03/24 09:46:53;;;;;;;45.30;25.90;;;18.20;55.90;;;;;;5053867;28;20701;-76
2022/03/24 09:49:19;;;;;;;46.17;26.65;;;18.20;55.00;;;;;;5053547;28;20193;-75
2022/03/24 09:51:45;;;;;;;50.85;25.63;;;18.20;57.20;;;;;;5052307;28;20276;-76
2022/03/24 09:54:12;;;;;;;42.72;25.25;;;18.10;56.60;;;;;;5053452;28;20275;-76
2022/03/24 09:56:39;;;;;;;44.08;26.02;;;18.50;56.20;;;;;;5053220;28;20231;-75
2022/03/24 09:59:07;;;;;;;43.60;25.98;;;18.40;56.20;;;;;;5054574;28;20193;-76
2022/03/24 10:01:33;;;;;;;42.30;26.42;;;18.00;55.80;;;;;;5053225;28;20234;-75
2022/03/24 10:04:06;;;;;;;45.65;26.83;;;18.00;58.00;;;;;;5053353;28;20568;-74
2022/03/24 10:06:33;;;;;;;41.45;23.75;;;18.60;54.90;;;;;;5053319;28;20173;-75
2022/03/24 10:08:59;;;;;;;42.90;24.58;;;18.20;57.30;;;;;;5053024;28;20200;-76
2022/03/24 10:11:26;;;;;;;39.88;23.77;;;19.10;53.50;;;;;;5052580;28;20173;-74
2022/03/24 10:13:58;;;;;;;40.08;25.33;;;19.10;52.80;;;;;;5053008;28;20173;-77
2022/03/24 10:16:33;;;;;;;41.22;25.52;;;18.90;55.10;;;;;;5053251;28;20292;-77
2022/03/24 10:19:03;;;;;;;41.67;24.85;;;17.90;55.00;;;;;;5052875;28;20731;-77
2022/03/24 10:21:30;;;;;;;38.42;24.85;;;18.40;55.60;;;;;;5052748;28;20258;-79
2022/03/24 10:24:00;;;;;;;46.38;24.23;;;18.80;56.40;;;;;;5054074;28;20642;-76
2022/03/24 10:26:50;;;;;;;46.33;24.20;;;19.10;54.10;;;;;;5052891;28;20196;-77
2022/03/24 10:29:23;;;;;;;39.58;23.83;;;19.40;54.70;;;;;;5053018;28;20193;-77
2022/03/24 10:31:55;;;;;;;40.42;23.52;;;19.70;54.40;;;;;;5052600;28;20220;-76
2022/03/24 10:34:28;;;;;;;41.63;24.35;;;19.60;53.50;;;;;;5052310;28;20180;-76
2022/03/24 10:36:54;;;;;;;41.88;24.98;;;19.60;52.80;;;;;;5052599;28;20676;-77
2022/03/24 10:39:24;;;;;;;41.30;24.02;;;19.40;54.50;;;;;;5052542;28;20189;-78
2022/03/24 10:41:49;;;;;;;40.70;23.40;;;19.10;54.70;;;;;;5052346;28;20173;-78
2022/03/24 10:44:15;;;;;;;39.70;23.75;;;19.20;55.10;;;;;;5052439;28;20166;-76
2022/03/24 10:46:42;;;;;;;42.70;24.02;;;18.80;53.70;;;;;;5052394;28;20637;-77
2022/03/24 10:49:20;;;;;;;43.67;24.58;;;19.30;55.20;;;;;;5052403;28;20194;-78
2022/03/24 10:54:38;;;;;;;45.45;24.08;;;19.60;52.60;;;;;;5052961;28;20205;-77
2022/03/24 10:57:13;;;;;;;36.35;22.42;;;19.90;52.40;;;;;;5052792;28;20734;-77
2022/03/24 10:59:43;;;;;;;41.75;22.98;;;19.10;50.30;;;;;;5053468;28;20779;-77
2022/03/24 11:02:09;;;;;;;37.97;21.45;;;19.50;53.00;;;;;;5052888;28;20173;-77
2022/03/24 11:04:35;;;;;;;36.78;22.15;;;19.40;49.20;;;;;;5052656;28;20172;-77
2022/03/24 11:07:01;;;;;;;43.53;22.88;;;19.00;49.70;;;;;;5052447;28;20180;-77
2022/03/24 11:09:32;;;;;;;41.28;22.80;;;18.80;51.30;;;;;;5052214;28;20672;-77
2022/03/24 11:12:26;;;;;;;39.83;22.40;;;19.30;51.70;;;;;;5052526;28;20272;-77
2022/03/24 11:14:54;;;;;;;47.67;23.25;;;18.90;51.40;;;;;;5052159;28;20299;-77
2022/03/24 11:17:25;;;;;;;39.42;22.17;;;19.10;51.80;;;;;;5052397;28;20262;-77
2022/03/24 11:20:13;;;;;;;37.97;22.73;;;19.60;52.80;;;;;;5052876;28;20189;-77
2022/03/24 11:22:57;;;;;;;37.70;21.48;;;19.50;50.10;;;;;;5051646;28;20173;-77
2022/03/24 11:25:25;;;;;;;40.63;22.90;;;19.40;50.60;;;;;;5052277;28;20619;-77
2022/03/24 11:27:53;;;;;;;40.53;22.27;;;19.60;52.30;;;;;;5052145;28;20534;-77
2022/03/24 11:30:20;;;;;;;36.95;21.85;;;19.80;49.90;;;;;;5051697;28;20221;-77
2022/03/24 11:32:52;;;;;;;35.47;21.15;;;19.70;50.40;;;;;;5052087;28;20179;-77
2022/03/24 11:35:19;;;;;;;37.92;22.27;;;19.60;50.10;;;;;;5051292;28;20174;-77
2022/03/24 11:37:45;;;;;;;37.47;21.30;;;19.70;49.00;;;;;;5051694;28;20174;-77
2022/03/24 11:40:10;;;;;;;36.65;21.35;;;19.50;49.40;;;;;;5052032;28;20200;-77
2022/03/24 11:42:44;;;;;;;34.92;20.85;;;19.80;52.80;;;;;;5051495;28;20531;-77
2022/03/24 11:45:10;;;;;;;35.08;21.23;;;19.70;49.30;;;;;;5051838;28;20218;-77
2022/03/24 11:48:05;;;;;;;35.33;20.20;;;20.00;48.70;;;;;;5051465;28;20170;-77
2022/03/24 11:50:49;;;;;;;36.40;21.60;;;20.40;49.30;;;;;;5051570;28;20306;-77
2022/03/24 11:53:27;;;;;;;37.20;22.02;;;20.50;49.90;;;;;;5051318;28;20189;-77
2022/03/24 11:55:59;;;;;;;39.55;22.40;;;20.60;49.20;;;;;;5051593;28;20201;-77
2022/03/24 11:58:34;;;;;;;34.75;20.90;;;21.20;47.30;;;;;;5051759;28;20200;-77
2022/03/24 12:01:20;;;;;;;36.60;21.08;;;21.00;48.00;;;;;;5051492;28;20427;-77
2022/03/24 12:03:49;;;;;;;36.88;21.70;;;20.50;48.70;;;;;;5047178;28;20177;-77
2022/03/24 12:06:17;;;;;;;40.83;21.42;;;20.50;47.90;;;;;;5050955;28;20177;-77
2022/03/24 12:09:06;;;;;;;40.55;21.95;;;20.10;48.40;;;;;;5051272;28;20242;-77
2022/03/24 12:11:31;;;;;;;32.80;20.70;;;20.20;49.50;;;;;;5050917;28;20652;-77
2022/03/24 12:14:02;;;;;;;38.35;21.45;;;20.10;48.00;;;;;;5051062;28;20177;-77
2022/03/24 12:16:29;;;;;;;41.55;22.73;;;20.00;47.70;;;;;;5051008;28;20564;-77
2022/03/24 12:18:55;;;;;;;39.38;23.20;;;20.10;49.30;;;;;;5051331;28;20255;-77
2022/03/24 12:21:24;;;;;;;36.58;22.33;;;20.10;49.80;;;;;;5051056;28;20173;-77
2022/03/24 12:24:06;;;;;;;42.22;22.35;;;20.30;50.20;;;;;;5051153;28;20180;-77
2022/03/24 12:26:37;;;;;;;41.38;23.45;;;20.50;49.20;;;;;;5050832;28;20228;-77
2022/03/24 12:29:24;;;;;;;43.42;22.98;;;20.30;48.20;;;;;;5051017;28;20196;-77
2022/03/24 12:32:05;;;;;;;42.70;23.33;;;20.60;47.90;;;;;;5050554;28;20641;-77
2022/03/24 12:34:40;;;;;;;43.22;22.80;;;20.10;47.80;;;;;;5050326;28;20653;-77
2022/03/24 12:37:25;;;;;;;40.90;22.02;;;20.10;49.10;;;;;;5050763;28;20197;-77
2022/03/24 12:40:09;;;;;;;45.65;23.52;;;19.90;48.70;;;;;;5046688;28;20205;-77